Date,TemperatureHighF,TemperatureAvgF,TemperatureLowF,DewpointHighF,DewpointAvgF,DewpointLowF,HumidityHigh,HumidityAvg,HumidityLow,PressureMaxIn,PressureMinIn,WindSpeedMaxMPH,WindSpeedAvgMPH,GustSpeedMaxMPH,PrecipitationSumIn
2014-1-1,19,4,-8,4,-10,-20,59,51,45,29.88,29.62,11,1,13,0.00
2014-1-2,9,3,-2,-7,-13,-17,48,48,48,29.94,29.53,5,1,5,0.00
2014-1-3,9,-1,-19,-7,-16,-33,48,48,48,29.85,29.44,13,2,13,0.00
2014-1-4,10,-7,-23,-6,-22,-36,48,48,48,29.97,29.71,3,0,3,0.00
2014-1-5,27,12,-5,22,0,-20,80,57,48,29.85,29.62,3,0,3,0.00
2014-1-6,36,32,25,34,27,11,95,84,54,29.62,28.79,10,1,10,0.00
2014-1-7,25,12,3,14,-3,-14,65,50,44,29.53,28.91,14,4,19,0.00
2014-1-8,20,8,-4,1,-9,-20,49,44,43,29.88,29.53,10,1,12,0.00
2014-1-9,22,6,-5,3,-11,-21,51,45,42,30.12,29.85,12,1,13,0.00
2014-1-10,24,9,-8,9,-6,-23,65,51,47,30.09,29.79,4,0,4,0.00
2014-1-11,34,28,16,31,24,7,94,83,65,29.79,28.73,3,0,4,0.00
2014-1-12,42,36,28,35,24,16,97,65,43,29.38,28.73,17,2,19,0.04
2014-1-13,42,31,21,29,21,16,80,67,48,29.56,29.32,8,1,8,0.04
2014-1-14,39,36,33,34,30,26,95,80,60,29.35,29.14,5,0,6,0.46
2014-1-15,40,33,25,36,30,22,98,89,68,29.50,29.20,6,0,6,0.00
2014-1-16,33,30,24,32,28,21,97,92,88,29.47,29.38,2,0,3,0.00
2014-1-17,39,32,24,36,30,21,98,90,70,29.44,29.35,5,0,8,0.13
2014-1-18,37,28,20,30,23,17,90,84,62,29.41,29.20,4,0,5,0.00
2014-1-19,35,27,21,29,21,16,90,80,64,29.23,28.94,10,1,10,0.03
2014-1-20,38,26,6,24,13,-10,74,59,45,29.41,28.94,13,2,13,0.00
2014-1-21,15,5,-5,-3,-11,-20,46,45,43,29.59,29.41,10,1,10,0.00
2014-1-22,14,6,-4,-4,-13,-22,44,42,39,29.50,29.23,10,2,13,0.00
2014-1-23,19,2,-12,0,-16,-29,46,42,40,29.59,29.38,9,2,10,0.00
2014-1-24,13,0,-10,-5,-17,-27,43,43,43,29.71,29.50,6,1,6,0.00
2014-1-25,29,17,1,15,2,-16,75,52,43,29.50,28.79,11,2,11,0.00
2014-1-26,18,12,6,11,0,-7,76,59,55,29.38,28.79,13,2,17,0.05
2014-1-27,32,17,11,18,1,-10,63,50,36,29.47,29.03,11,2,13,0.00
2014-1-28,16,6,-3,-6,-14,-23,38,37,36,29.74,29.47,10,2,14,0.00
2014-1-29,21,7,-8,0,-13,-27,44,38,37,29.74,29.41,15,2,15,0.00
2014-1-30,25,11,-3,5,-8,-22,47,41,38,29.94,29.62,6,1,8,0.00
2014-1-31,39,22,8,16,5,-9,56,47,39,29.68,29.47,7,1,10,0.00
2014-2-1,39,25,10,25,12,0,79,57,41,29.85,29.50,6,0,6,0.00
2014-2-2,38,34,30,31,28,19,86,79,60,29.59,29.35,9,1,9,0.08
2014-2-3,36,27,11,19,11,-1,59,49,41,29.79,29.56,12,1,12,0.00
2014-2-4,32,16,2,12,2,-9,68,54,42,29.94,29.79,3,0,4,0.00
2014-2-5,24,20,15,14,11,6,77,69,57,29.85,29.32,2,0,4,0.00
2014-2-6,24,12,-2,10,-1,-12,78,57,44,29.76,29.44,5,0,5,0.04
2014-2-7,26,8,-11,10,-7,-22,63,51,43,29.71,29.62,7,0,8,0.04
2014-2-8,26,10,-8,6,-6,-22,59,48,42,29.74,29.62,3,0,3,0.00
2014-2-9,27,16,2,9,0,-13,66,50,43,29.71,29.47,4,0,4,0.00
2014-2-10,24,16,4,10,1,-13,71,54,40,29.68,29.44,8,0,8,0.00
2014-2-11,21,7,-8,1,-11,-24,53,42,37,29.91,29.68,13,2,16,0.00
2014-2-12,28,7,-11,4,-13,-29,46,38,35,30.09,29.91,11,1,11,0.00
2014-2-13,33,15,-3,31,3,-22,93,59,37,29.91,28.82,8,1,10,0.00
2014-2-14,36,30,16,30,20,8,90,68,45,29.17,28.41,14,2,14,0.00
2014-2-15,36,23,10,21,13,2,76,66,48,29.41,29.09,11,0,11,0.04
2014-2-16,29,21,9,17,4,-9,61,46,41,29.44,29.03,14,3,17,0.00
2014-2-17,23,12,-3,-1,-8,-24,44,39,33,29.85,29.44,17,3,17,0.00
2014-2-18,23,9,-10,16,-6,-30,73,49,35,29.91,29.50,3,0,4,0.00
2014-2-19,33,22,8,22,14,1,81,71,55,29.59,29.29,4,0,4,0.00
2014-2-20,47,36,25,26,20,16,87,54,35,29.68,29.32,18,2,18,0.29
2014-2-21,36,34,32,32,30,26,94,86,75,29.68,29.23,0,0,1,0.42
2014-2-22,45,36,28,35,25,12,96,69,35,29.38,29.26,11,1,11,0.16
2014-2-23,46,38,31,20,15,10,43,38,33,29.44,29.23,12,1,12,0.00
2014-2-24,36,27,18,10,4,-4,43,38,34,29.38,29.20,13,2,17,0.00
2014-2-25,26,15,2,4,-4,-15,45,42,37,29.44,29.35,6,1,10,0.00
2014-2-26,27,8,-6,7,-10,-22,54,43,38,29.41,29.23,10,2,13,0.00
2014-2-27,26,11,-1,4,-8,-21,55,41,37,29.38,29.12,12,1,12,0.00
2014-2-28,20,9,-4,-1,-9,-25,51,42,34,29.97,29.32,10,2,11,0.00
2014-3-1,29,11,-10,5,-10,-30,44,37,35,29.97,29.56,10,1,10,0.00
2014-3-2,32,22,10,12,3,-7,55,44,38,29.59,29.50,10,1,12,0.00
2014-3-3,22,9,-4,-2,-11,-25,45,39,33,29.79,29.56,12,2,16,0.00
2014-3-4,28,8,-13,3,-13,-34,46,36,32,29.88,29.76,6,1,9,0.00
2014-3-5,26,16,7,7,0,-10,58,48,43,30.06,29.79,10,1,12,0.00
2014-3-6,33,11,-10,7,-9,-25,46,40,31,30.15,30.00,6,1,7,0.00
2014-3-7,39,16,-8,11,-6,-28,49,37,31,30.03,29.50,7,1,7,0.00
2014-3-8,48,27,8,22,8,-6,58,46,37,29.50,29.23,11,1,12,0.00
2014-3-9,33,23,12,9,3,-4,57,41,31,29.47,29.38,15,2,15,0.00
2014-3-10,38,28,18,18,9,-1,61,45,39,29.38,29.20,3,0,5,0.00
2014-3-11,43,34,27,34,24,18,79,68,49,29.26,29.03,6,0,6,0.13
2014-3-12,36,31,25,30,26,19,91,81,73,29.26,28.76,1,0,1,0.04
2014-3-13,27,17,12,22,4,-4,81,57,45,29.35,28.70,8,0,10,0.00
2014-3-14,14,5,-3,-4,-12,-19,45,45,45,29.62,29.35,9,1,11,0.00
2014-3-15,38,36,34,25,24,21,67,62,55,29.32,29.26,9,1,10,0.00
2014-3-16,34,21,6,20,1,-15,57,41,35,29.71,29.32,15,3,15,0.00
2014-3-17,27,11,-4,2,-11,-24,44,36,32,29.74,29.56,12,2,12,0.00
2014-3-18,38,16,-5,10,-6,-26,46,36,31,29.88,29.71,7,1,7,0.00
2014-3-19,39,25,6,23,8,-9,75,51,40,29.94,29.59,7,0,8,0.00
2014-3-20,45,35,29,33,27,23,84,72,61,29.59,29.06,6,0,6,0.33
2014-3-21,39,33,23,24,17,10,66,50,40,29.50,29.17,14,2,14,0.00
2014-3-22,38,26,14,28,14,5,69,60,45,29.56,29.20,12,1,13,0.04
2014-3-23,32,25,12,18,6,-9,66,45,34,29.62,29.41,15,2,15,0.00
2014-3-24,20,12,4,-2,-10,-17,40,37,35,29.65,29.59,10,2,17,0.00
2014-3-25,34,14,-8,11,-6,-28,47,38,36,29.68,29.53,8,1,8,0.00
2014-3-26,32,24,16,11,5,0,55,45,37,29.56,29.17,19,3,19,0.00
2014-3-27,37,25,14,10,2,-8,41,36,32,29.76,29.47,11,2,15,0.00
2014-3-28,43,34,30,32,22,7,85,61,37,29.68,29.44,3,0,4,0.08
2014-3-29,51,40,33,36,28,24,92,65,40,29.76,29.50,7,0,7,0.04
2014-3-30,38,36,33,34,30,26,91,78,65,29.68,29.35,6,1,8,0.83
2014-3-31,36,34,34,26,25,22,73,69,62,29.38,29.32,11,2,14,0.00
2014-4-1,43,33,28,17,16,15,60,49,34,29.65,29.59,2,0,3,0.00
2014-4-2,50,35,24,25,18,14,71,52,35,29.68,29.50,6,0,6,0.00
2014-4-3,45,33,20,24,17,13,75,52,37,29.68,29.56,10,0,14,0.00
2014-4-4,47,33,21,26,18,12,77,54,38,29.71,29.50,6,0,10,0.08
2014-4-5,48,38,33,36,28,18,87,67,43,29.50,29.14,10,1,10,0.42
2014-4-6,51,39,29,22,17,14,55,42,31,29.68,29.35,15,2,17,0.00
2014-4-7,57,39,25,29,21,15,71,50,34,29.76,29.53,9,0,9,0.00
2014-4-8,54,43,35,45,36,25,94,78,60,29.53,28.82,2,0,3,0.78
2014-4-9,47,41,32,30,21,6,72,48,30,29.44,28.97,14,1,17,0.00
2014-4-10,56,39,22,26,17,6,58,41,30,29.62,29.41,11,0,11,0.00
2014-4-11,63,47,36,35,28,20,78,51,25,29.56,29.38,8,0,8,0.04
2014-4-12,60,45,31,33,26,19,76,49,27,29.76,29.53,10,0,12,0.00
2014-4-13,40,37,35,33,28,20,86,71,51,29.91,29.56,0,0,2,0.21
2014-4-14,68,49,34,52,39,30,91,70,42,29.56,29.26,10,0,10,0.04
2014-4-15,58,54,38,57,50,32,98,87,65,29.35,29.03,12,2,12,1.16
2014-4-16,38,31,24,32,14,7,87,51,36,30.15,29.23,15,3,20,0.09
2014-4-17,46,32,18,20,14,7,70,49,33,30.33,30.15,8,1,8,0.00
2014-4-18,51,35,21,26,19,13,73,53,36,30.18,29.76,9,1,10,0.00
2014-4-19,51,40,29,32,23,14,79,54,35,29.94,29.65,11,2,15,0.00
2014-4-20,59,41,25,24,19,13,62,43,26,30.06,29.82,8,0,11,0.00
2014-4-21,71,49,34,37,28,20,66,45,26,29.82,29.32,5,0,9,0.00
2014-4-22,70,54,42,40,34,27,75,50,28,29.32,29.00,3,0,3,0.00
2014-4-23,55,46,40,45,34,26,91,64,41,29.12,28.97,15,2,17,0.08
2014-4-24,51,44,38,26,22,19,52,42,37,29.44,29.12,24,5,29,0.04
2014-4-25,64,49,36,28,23,19,53,37,25,29.50,29.32,10,2,12,0.00
2014-4-26,47,42,37,37,32,26,88,71,53,29.41,29.35,6,0,6,0.41
2014-4-27,55,44,37,41,34,27,94,72,43,29.56,29.38,10,1,12,0.05
2014-4-28,59,48,42,37,30,26,77,51,37,29.79,29.53,17,2,17,0.00
2014-4-29,59,46,39,36,30,27,78,55,36,30.06,29.79,9,1,10,0.04
2014-4-30,47,41,38,34,31,28,85,68,57,30.09,29.76,1,0,3,0.17
2014-5-1,60,46,37,47,40,34,94,82,58,29.76,29.17,1,0,1,0.45
2014-5-2,65,51,38,50,39,34,98,68,36,29.32,29.14,6,0,10,0.04
2014-5-3,65,50,35,48,39,30,89,69,36,29.38,29.23,3,0,4,0.17
2014-5-4,57,49,44,50,41,35,97,76,49,29.26,29.00,8,0,8,0.33
2014-5-5,61,52,40,38,34,29,66,52,37,29.35,29.12,12,3,21,0.00
2014-5-6,41,39,37,32,30,29,77,71,65,29.35,29.35,4,0,4,0.00
2014-5-9,46,46,46,40,40,39,81,78,75,29.65,29.59,0,0,0,0.00
2014-5-10,82,58,46,62,49,41,91,73,33,29.62,29.14,4,0,4,0.13
2014-5-11,77,63,50,45,35,29,61,36,22,29.56,29.23,8,0,10,0.00
2014-5-12,83,63,46,41,36,29,63,39,22,29.62,29.44,17,0,17,0.00
2014-5-13,65,56,48,40,36,29,61,48,32,29.79,29.62,8,1,8,0.04
2014-5-14,76,58,47,43,39,35,74,52,30,29.82,29.71,7,0,9,0.00
2014-5-15,74,58,45,58,49,37,84,71,53,29.79,29.68,2,0,2,0.00
2014-5-16,76,64,58,62,57,53,94,79,47,29.71,29.53,10,1,12,0.66
2014-5-17,76,63,49,64,53,40,98,75,35,29.56,29.35,8,1,10,1.25
2014-5-18,69,58,45,43,36,27,81,47,27,29.62,29.50,11,2,12,0.00
2014-5-19,60,53,43,41,31,24,66,45,35,29.56,29.53,11,3,15,0.00
2014-5-20,72,60,50,42,38,35,61,44,33,29.53,29.41,16,3,19,0.00
2014-5-21,76,62,49,49,45,41,79,56,34,29.53,29.38,6,1,8,0.00
2014-5-22,70,60,50,51,48,45,84,66,44,29.47,29.35,6,1,8,0.00
2014-5-23,58,55,53,54,52,50,95,90,81,29.53,29.38,3,0,3,0.75
2014-5-24,70,58,52,58,53,48,98,83,49,29.56,29.47,6,0,6,0.25
2014-5-25,74,59,46,61,52,44,97,79,50,29.59,29.44,4,0,6,0.04
2014-5-26,72,63,54,58,53,47,96,72,47,29.47,29.26,15,2,15,0.04
2014-5-27,61,55,47,57,52,0,96,91,83,29.56,29.29,4,0,4,0.91
2014-5-28,59,50,41,51,46,38,98,89,64,29.74,29.53,3,0,4,0.09
2014-5-29,73,55,34,51,39,32,97,62,28,29.76,29.56,7,1,8,0.00
2014-5-30,72,54,41,53,45,36,91,74,40,29.62,29.47,7,0,7,0.33
2014-5-31,74,58,46,57,46,38,96,69,33,29.79,29.59,8,1,8,0.00
2014-6-1,82,60,38,48,41,33,87,56,27,29.85,29.62,9,1,10,0.00
2014-6-2,88,65,46,52,47,40,83,56,28,29.68,29.41,10,1,10,0.00
2014-6-3,82,65,50,56,48,41,86,59,30,29.53,29.38,9,1,10,0.00
2014-6-4,59,57,55,53,49,44,89,75,64,29.41,29.29,6,0,6,0.00
2014-6-5,66,58,52,55,53,48,95,83,66,29.32,29.17,4,0,4,0.00
2014-6-6,75,63,52,54,48,44,93,60,36,29.32,29.17,10,2,13,0.00
2014-6-7,83,69,53,53,48,45,84,52,29,29.41,29.29,11,2,14,0.00
2014-6-8,88,70,53,59,52,47,84,57,30,29.44,29.29,6,0,6,0.00
2014-6-9,87,70,57,63,56,51,83,63,34,29.44,29.35,4,0,5,0.00
2014-6-10,78,66,53,63,55,48,91,72,43,29.65,29.41,5,0,5,0.04
2014-6-11,81,62,44,55,47,40,92,63,33,29.74,29.62,6,1,8,0.13
2014-6-12,63,59,55,55,53,50,93,82,70,29.71,29.62,3,0,3,0.57
2014-6-13,59,57,56,58,56,54,97,95,93,29.65,29.38,3,0,4,1.21
2014-6-14,73,62,54,62,54,43,98,77,46,29.41,29.32,8,1,8,0.00
2014-6-15,77,65,52,52,45,38,85,51,32,29.50,29.38,13,3,15,0.00
2014-6-16,84,66,48,53,45,38,77,50,29,29.62,29.41,6,1,6,0.00
2014-6-17,89,72,57,62,56,51,83,62,34,29.50,29.26,5,0,6,0.00
2014-6-18,82,71,66,66,57,50,93,64,38,29.38,29.09,14,2,18,0.16
2014-6-19,79,69,53,54,43,35,75,42,22,29.44,29.35,11,2,13,0.00
2014-6-20,70,58,50,43,37,33,75,48,30,29.44,29.35,12,2,13,0.00
2014-6-21,72,58,43,48,39,30,78,53,23,29.47,29.32,11,1,11,0.00
2014-6-22,80,60,42,51,44,35,83,58,32,29.53,29.41,6,0,8,0.00
2014-6-23,84,64,46,56,48,41,88,61,33,29.62,29.53,6,0,6,0.00
2014-6-24,77,67,53,62,54,47,84,66,50,29.62,29.41,6,0,7,0.00
2014-6-25,77,69,63,67,62,55,95,78,61,29.41,29.35,3,0,6,1.04
2014-6-26,72,66,55,65,60,52,98,83,54,29.56,29.32,6,0,6,1.33
2014-6-27,85,65,50,61,52,48,97,67,30,29.71,29.53,4,0,5,0.00
2014-6-28,88,68,50,60,52,46,91,62,29,29.76,29.65,5,0,6,0.00
2014-6-29,88,70,52,59,54,47,89,61,31,29.74,29.47,6,0,7,0.00
2014-6-30,91,74,57,67,60,53,90,65,38,29.56,29.29,6,0,7,0.00
2014-7-1,93,78,63,70,65,59,89,68,44,29.35,29.17,8,0,9,0.04
2014-7-2,96,77,69,73,68,65,95,78,41,29.38,29.20,6,0,7,0.75
2014-7-3,91,76,68,72,69,66,97,81,48,29.44,29.32,12,0,12,8.64
2014-7-4,71,68,60,71,67,58,98,98,93,29.44,29.35,4,0,4,9.27
2014-7-5,78,67,58,58,46,36,92,51,31,29.38,29.26,15,4,24,0.12
2014-7-6,89,75,62,53,47,39,65,38,26,29.35,29.17,11,2,15,0.00
2014-7-7,78,67,57,68,59,49,88,76,66,29.26,29.09,3,0,3,0.00
2014-7-8,91,75,64,71,66,61,94,76,43,29.20,29.09,6,1,8,0.08
2014-7-9,88,74,65,69,60,52,95,65,33,29.35,29.06,7,1,14,0.00
2014-7-10,84,69,55,62,53,41,93,61,30,29.65,29.35,6,1,8,0.00
2014-7-11,82,65,50,56,50,44,86,62,34,29.71,29.56,6,1,6,0.00
2014-7-12,88,68,50,59,54,46,90,64,33,29.71,29.50,7,1,9,0.00
2014-7-13,85,72,61,69,63,56,91,77,51,29.56,29.29,6,1,6,0.05
2014-7-14,89,75,66,69,64,57,95,73,39,29.35,29.26,8,1,8,0.04
2014-7-15,86,74,66,70,66,63,92,76,55,29.32,29.17,4,0,4,0.04
2014-7-16,80,72,64,72,68,62,96,88,67,29.32,29.20,6,0,6,1.45
2014-7-17,80,67,57,65,58,49,98,75,35,29.53,29.32,6,0,6,0.00
2014-7-18,82,65,50,58,52,47,93,66,34,29.71,29.53,6,0,6,0.00
2014-7-19,81,65,51,59,53,47,88,69,37,29.76,29.68,5,0,5,0.00
2014-7-20,76,67,57,64,58,54,91,74,48,29.71,29.62,4,0,4,0.00
2014-7-21,86,68,54,60,56,51,94,67,37,29.68,29.53,6,1,6,0.00
2014-7-22,92,72,56,66,60,52,91,69,37,29.62,29.35,5,1,5,0.00
2014-7-23,93,74,61,70,63,56,91,73,40,29.38,29.12,6,1,6,0.54
2014-7-24,78,69,55,67,54,43,92,63,36,29.35,29.20,12,2,12,0.04
2014-7-25,58,52,49,53,45,44,87,77,67,29.38,29.35,4,1,4,0.00
2014-8-8,76,65,62,53,52,47,68,62,36,29.47,29.38,4,1,8,0.00
2014-8-9,84,69,57,60,51,46,85,57,29,29.53,29.41,10,1,10,0.00
2014-8-10,86,66,52,60,53,47,87,66,33,29.59,29.50,5,1,6,0.00
2014-8-11,86,68,53,63,56,50,91,69,34,29.62,29.50,4,0,6,0.00
2014-8-12,80,67,59,63,59,54,91,75,50,29.62,29.53,5,0,5,0.00
2014-8-13,67,64,60,62,60,59,98,88,80,29.53,29.14,8,0,8,3.15
2014-8-14,74,63,51,65,55,44,98,78,39,29.32,29.09,6,0,8,0.25
2014-8-15,71,59,48,56,50,44,94,75,47,29.35,29.26,6,0,6,0.00
2014-8-16,74,64,55,57,54,50,90,71,47,29.35,29.32,6,0,6,0.00
2014-8-17,70,62,55,61,55,48,94,79,51,29.32,29.20,6,1,8,0.04
2014-8-18,72,62,53,57,48,42,93,64,36,29.32,29.23,11,2,13,0.17
2014-8-19,79,61,45,57,49,41,91,68,40,29.41,29.32,5,1,5,0.00
2014-8-20,80,63,49,59,52,46,94,70,38,29.53,29.41,4,0,6,0.00
2014-8-21,75,63,53,59,54,49,91,75,46,29.59,29.50,3,0,4,0.00
2014-8-22,72,65,60,61,57,54,91,77,54,29.62,29.56,4,0,5,0.25
2014-8-23,76,64,55,63,56,51,96,77,43,29.62,29.53,4,0,5,0.00
2014-8-24,84,66,51,62,54,48,95,71,34,29.62,29.50,4,1,6,0.00
2014-8-25,87,70,55,64,57,52,91,68,35,29.62,29.50,4,1,5,0.00
2014-8-26,86,69,55,65,58,51,92,70,40,29.65,29.41,10,1,10,0.00
2014-8-27,88,71,56,65,57,49,91,64,33,29.44,29.23,7,1,7,0.00
2014-8-28,74,67,58,56,46,39,78,47,32,29.44,29.26,11,2,12,0.00
2014-8-29,77,64,53,49,46,42,76,52,33,29.71,29.44,11,1,11,0.00
2014-8-30,78,63,50,58,50,44,87,66,41,29.74,29.53,6,1,10,0.00
2014-8-31,79,67,56,67,60,51,92,78,56,29.53,29.38,4,0,5,0.04
2014-9-1,86,72,64,69,65,60,95,80,47,29.44,29.32,4,0,4,0.00
2014-9-2,86,71,60,70,64,57,95,79,51,29.41,29.14,6,1,6,0.04
2014-9-3,80,69,55,68,55,46,93,65,33,29.53,29.12,8,1,8,0.17
2014-9-4,82,64,49,58,52,45,91,68,39,29.65,29.50,10,1,10,0.00
2014-9-5,87,70,55,65,59,51,92,71,40,29.62,29.35,12,1,12,0.00
2014-9-6,89,71,62,71,62,57,92,76,40,29.38,29.12,7,1,8,0.12
2014-9-7,75,62,50,58,47,39,92,61,32,29.68,29.35,8,2,11,0.00
2014-9-8,76,58,44,53,46,40,89,67,39,29.85,29.68,4,1,6,0.00
2014-9-9,70,54,40,51,41,36,91,66,36,29.88,29.71,6,1,6,0.00
2014-9-10,73,57,42,54,47,38,88,72,45,29.71,29.50,6,1,6,0.00
2014-9-11,68,61,56,66,59,51,95,91,83,29.50,29.20,4,1,5,0.12
2014-9-12,56,54,51,54,51,48,92,88,84,29.38,29.32,4,1,4,0.00
2014-9-13,51,51,50,48,47,46,89,86,83,29.65,29.59,4,0,4,0.00
2014-9-14,61,50,39,48,38,31,94,66,38,29.71,29.59,11,2,12,0.00
2014-9-15,64,46,31,43,36,26,88,69,43,29.74,29.56,6,0,6,0.00
2014-9-16,62,52,45,54,47,42,91,82,66,29.59,29.41,4,0,6,0.04
2014-9-17,68,52,39,52,43,37,95,75,39,29.53,29.38,6,0,6,0.00
2014-9-18,65,50,38,54,38,28,92,66,36,29.65,29.41,7,1,8,0.00
2014-9-19,59,43,31,30,27,23,78,55,31,29.85,29.65,5,1,5,0.00
2014-9-20,54,44,30,48,36,23,85,75,61,29.88,29.53,4,0,4,0.00